Time;durP1;ratioP1;P1;durP2;ratioP2;P2;SDS_P1;SDS_P2;PMS_P1;PMS_P2;Temp;Humidity;BMP_temperature;BMP_pressure;BME280_temperature;BME280_humidity;BME280_pressure;Samples;Min_cycle;Max_cycle;Signal;HPM_P1;HPM_P2
2022/12/13 00:00:17;;;;;;;25.08;12.70;;;-4.30;99.90;;;;;;5000627;28;20086;-67
2022/12/13 00:02:45;;;;;;;24.48;14.13;;;-4.20;99.90;;;;;;5000142;28;20062;-67
2022/12/13 00:05:12;;;;;;;26.10;13.73;;;-4.30;99.90;;;;;;4993380;28;20042;-68
2022/12/13 00:07:38;;;;;;;21.23;12.82;;;-4.40;99.90;;;;;;4995163;28;20043;-67
2022/12/13 00:10:05;;;;;;;25.70;12.32;;;-4.40;99.90;;;;;;5017016;28;20042;-67
2022/12/13 00:12:31;;;;;;;24.60;13.25;;;-4.50;99.90;;;;;;5005804;28;20555;-67
2022/12/13 00:14:57;;;;;;;23.58;13.55;;;-4.50;99.90;;;;;;5004810;28;20061;-67
2022/12/13 00:17:22;;;;;;;22.65;12.23;;;-4.40;99.90;;;;;;5004469;28;20053;-67
2022/12/13 00:19:48;;;;;;;27.45;13.48;;;-4.40;99.90;;;;;;5011742;28;20082;-67
2022/12/13 00:22:15;;;;;;;25.63;13.38;;;-4.30;99.90;;;;;;4997143;28;20071;-68
2022/12/13 00:24:41;;;;;;;26.92;13.77;;;-4.30;99.90;;;;;;5019392;28;20058;-67
2022/12/13 00:27:07;;;;;;;23.42;12.98;;;-4.10;99.90;;;;;;5006799;28;20041;-67
2022/12/13 00:29:34;;;;;;;26.25;13.70;;;;;;;;;;5008889;28;20106;-67
2022/12/13 00:32:00;;;;;;;26.95;14.77;;;-4.00;99.90;;;;;;5002784;28;20061;-67
2022/12/13 00:34:26;;;;;;;26.10;13.40;;;-4.10;99.90;;;;;;4999997;28;20085;-67
2022/12/13 00:36:53;;;;;;;27.98;13.95;;;-4.00;99.90;;;;;;5031984;28;20047;-67
2022/12/13 00:39:19;;;;;;;26.08;13.02;;;-4.10;99.90;;;;;;4994835;28;20135;-67
2022/12/13 00:41:46;;;;;;;24.88;13.52;;;-4.20;99.90;;;;;;5002602;28;20042;-67
2022/12/13 00:44:13;;;;;;;29.17;14.18;;;-4.20;99.90;;;;;;5005875;28;20049;-67
2022/12/13 00:46:40;;;;;;;27.20;14.18;;;-4.00;99.90;;;;;;5009965;28;20080;-67
2022/12/13 00:49:06;;;;;;;30.90;16.25;;;-3.90;99.90;;;;;;4999370;28;20050;-67
2022/12/13 00:51:33;;;;;;;26.75;14.30;;;-3.90;99.90;;;;;;4997547;28;20136;-67
2022/12/13 00:54:00;;;;;;;25.73;14.63;;;-3.80;99.90;;;;;;4999851;28;20074;-67
2022/12/13 00:56:28;;;;;;;23.88;13.32;;;-3.80;99.90;;;;;;5004401;28;20050;-67
2022/12/13 00:58:55;;;;;;;31.00;14.25;;;-3.80;99.90;;;;;;5009746;28;20073;-67
2022/12/13 01:01:24;;;;;;;24.15;14.18;;;-3.90;99.90;;;;;;5002960;28;20050;-67
2022/12/13 01:03:52;;;;;;;31.30;14.63;;;-3.90;99.90;;;;;;5003415;28;20042;-67
2022/12/13 01:06:21;;;;;;;24.98;14.10;;;-3.80;99.90;;;;;;5004268;28;20076;-67
2022/12/13 01:08:47;;;;;;;26.15;13.32;;;-3.90;99.90;;;;;;5020733;28;20067;-67
2022/12/13 01:11:14;;;;;;;23.52;13.73;;;-3.90;99.90;;;;;;5011089;28;20038;-67
2022/12/13 01:13:40;;;;;;;23.10;13.45;;;-4.00;99.90;;;;;;4998799;28;20068;-67
2022/12/13 01:16:08;;;;;;;26.77;14.27;;;-4.10;99.90;;;;;;5023269;28;20030;-67
2022/12/13 01:18:34;;;;;;;24.73;13.45;;;-4.00;99.90;;;;;;4994165;28;20137;-67
2022/12/13 01:21:06;;;;;;;24.83;13.85;;;-4.10;99.90;;;;;;4996490;28;20084;-67
2022/12/13 01:23:33;;;;;;;23.23;13.80;;;-4.10;99.90;;;;;;5006390;28;20054;-67
2022/12/13 01:26:03;;;;;;;25.08;14.05;;;-4.10;99.90;;;;;;4996909;28;20053;-67
2022/12/13 01:28:29;;;;;;;24.00;14.15;;;-4.10;99.90;;;;;;5008338;28;20041;-67
2022/12/13 01:31:04;;;;;;;25.05;12.70;;;-4.00;99.90;;;;;;5015033;28;20038;-67
2022/12/13 01:33:31;;;;;;;22.95;13.32;;;-3.90;99.90;;;;;;5012402;28;20096;-67
2022/12/13 01:36:01;;;;;;;24.77;12.70;;;-4.00;99.90;;;;;;4995068;28;20054;-67
2022/12/13 01:38:27;;;;;;;26.00;13.30;;;-3.90;99.90;;;;;;5007255;28;20054;-67
2022/12/13 01:40:57;;;;;;;21.80;13.05;;;-4.00;99.90;;;;;;4995047;28;20047;-67
2022/12/13 01:43:24;;;;;;;22.52;11.85;;;-3.90;99.90;;;;;;4996465;28;20038;-67
2022/12/13 01:45:50;;;;;;;23.92;11.95;;;-3.90;99.90;;;;;;4996948;28;20046;-66
2022/12/13 01:48:23;;;;;;;22.17;13.13;;;-4.00;99.90;;;;;;5009246;28;20030;-67
2022/12/13 01:50:52;;;;;;;22.98;13.02;;;-4.00;99.90;;;;;;5083507;28;20043;-67
2022/12/13 01:53:21;;;;;;;24.85;13.45;;;-4.00;99.90;;;;;;5044851;28;20069;-67
2022/12/13 01:55:52;;;;;;;23.45;12.60;;;-3.90;99.90;;;;;;4996375;28;20118;-67
2022/12/13 01:58:19;;;;;;;21.55;12.77;;;-3.90;99.90;;;;;;5019297;28;20117;-67
2022/12/13 02:00:46;;;;;;;24.27;12.35;;;-3.90;99.90;;;;;;4994573;28;20432;-67
2022/12/13 02:03:14;;;;;;;19.23;12.15;;;-3.90;99.90;;;;;;4997486;28;20548;-67
2022/12/13 02:05:46;;;;;;;25.92;12.70;;;-4.00;99.90;;;;;;5009480;28;20058;-67
2022/12/13 02:08:14;;;;;;;21.60;12.15;;;-3.90;99.90;;;;;;5008281;28;20073;-67
2022/12/13 02:10:41;;;;;;;21.30;11.73;;;-3.90;99.90;;;;;;5011481;28;20277;-66
2022/12/13 02:13:07;;;;;;;20.98;11.77;;;-3.90;99.90;;;;;;5002890;28;20049;-67
2022/12/13 02:15:54;;;;;;;22.08;12.20;;;-3.90;99.90;;;;;;4999163;28;20042;-67
2022/12/13 02:18:30;;;;;;;22.00;12.30;;;-3.80;99.90;;;;;;4994646;28;20066;-67
2022/12/13 02:21:11;;;;;;;23.70;11.98;;;-3.80;99.90;;;;;;5012238;28;20060;-67
2022/12/13 02:24:10;;;;;;;27.23;14.27;;;-3.90;99.90;;;;;;4999434;28;20054;-66
2022/12/13 02:26:54;;;;;;;26.42;14.23;;;-3.90;99.90;;;;;;4995161;28;20054;-66
2022/12/13 02:29:42;;;;;;;32.70;15.13;;;-4.30;99.90;;;;;;4996806;28;20054;-67
2022/12/13 02:32:29;;;;;;;29.90;15.32;;;-4.00;99.90;;;;;;4993562;28;20110;-66
2022/12/13 02:35:08;;;;;;;26.63;14.90;;;-4.00;99.90;;;;;;4994321;28;20049;-67
2022/12/13 02:38:06;;;;;;;29.13;15.38;;;-4.00;99.90;;;;;;4998214;28;20581;-67
2022/12/13 02:40:42;;;;;;;30.15;15.15;;;-4.10;99.90;;;;;;4994196;28;20050;-67
2022/12/13 02:43:25;;;;;;;27.55;14.63;;;-4.00;99.90;;;;;;4995982;28;20057;-66
2022/12/13 02:45:56;;;;;;;29.75;15.77;;;-4.00;99.90;;;;;;4995750;28;20053;-66
2022/12/13 02:48:29;;;;;;;25.73;14.45;;;-4.00;99.90;;;;;;4992695;28;20038;-66
2022/12/13 02:50:57;;;;;;;28.42;14.52;;;-4.00;99.90;;;;;;4996408;28;20050;-67
2022/12/13 02:53:24;;;;;;;22.23;12.75;;;-4.10;99.90;;;;;;5006968;28;20050;-67
2022/12/13 02:55:50;;;;;;;25.17;13.43;;;-4.20;99.90;;;;;;5002169;28;20058;-67
2022/12/13 02:58:23;;;;;;;26.00;13.85;;;-4.20;99.90;;;;;;5030468;28;20048;-67
2022/12/13 03:01:22;;;;;;;24.75;13.18;;;-4.40;99.90;;;;;;5005804;28;20077;-66
2022/12/13 03:04:25;;;;;;;25.45;13.90;;;-4.50;99.90;;;;;;4995704;28;20046;-66
2022/12/13 03:07:18;;;;;;;22.52;12.35;;;-4.50;99.90;;;;;;5000009;28;20051;-66
2022/12/13 03:09:56;;;;;;;21.48;12.15;;;-4.60;99.90;;;;;;5047411;28;20047;-67
2022/12/13 03:15:37;;;;;;;24.40;12.70;;;-4.60;99.90;;;;;;4999729;28;20045;-66
2022/12/13 03:18:14;;;;;;;24.05;13.20;;;-4.90;99.90;;;;;;4980150;28;20058;-66
2022/12/13 03:20:48;;;;;;;22.65;12.65;;;-5.00;99.90;;;;;;4996278;28;20074;-66
2022/12/13 03:23:15;;;;;;;22.02;12.68;;;-5.10;99.90;;;;;;4993496;28;20047;-66
2022/12/13 03:25:41;;;;;;;24.20;13.45;;;-5.20;99.90;;;;;;4995252;28;20105;-66
2022/12/13 03:28:07;;;;;;;21.33;12.07;;;-6.50;99.90;;;;;;4994290;28;20134;-66
2022/12/13 03:30:33;;;;;;;22.02;12.95;;;-5.20;99.90;;;;;;4999315;28;20054;-67
2022/12/13 03:32:59;;;;;;;24.35;12.52;;;-5.20;99.90;;;;;;5007759;28;20075;-66
2022/12/13 03:35:25;;;;;;;21.77;11.70;;;-5.20;99.90;;;;;;5003366;28;20150;-67
2022/12/13 03:37:52;;;;;;;20.90;11.63;;;-5.20;99.90;;;;;;4995664;28;20058;-66
2022/12/13 03:40:19;;;;;;;20.05;11.40;;;-5.20;99.90;;;;;;4993218;28;20043;-67
2022/12/13 03:42:45;;;;;;;20.13;11.23;;;-5.20;99.90;;;;;;4995186;28;20046;-66
2022/12/13 03:45:11;;;;;;;18.35;10.85;;;-5.20;99.90;;;;;;4996919;28;20106;-66
2022/12/13 03:47:36;;;;;;;20.42;11.57;;;-5.30;99.90;;;;;;4998047;28;20093;-66
2022/12/13 03:50:02;;;;;;;26.00;12.73;;;-5.30;99.90;;;;;;4998318;28;20080;-66
2022/12/13 03:52:28;;;;;;;21.50;12.73;;;-5.20;99.90;;;;;;4995508;28;20058;-66
2022/12/13 03:54:54;;;;;;;19.23;11.20;;;-5.10;99.90;;;;;;4999205;28;20050;-67
2022/12/13 03:57:19;;;;;;;18.38;11.90;;;-5.00;99.90;;;;;;4996099;28;20054;-67
2022/12/13 03:59:45;;;;;;;24.50;12.32;;;-5.00;99.90;;;;;;4998646;28;20047;-67
2022/12/13 04:02:10;;;;;;;19.35;11.50;;;-4.90;99.90;;;;;;5000210;28;20045;-66
2022/12/13 04:04:36;;;;;;;20.52;12.20;;;-4.90;99.90;;;;;;5019405;28;20043;-66
2022/12/13 04:07:02;;;;;;;23.23;12.18;;;-4.90;99.90;;;;;;4998678;28;20129;-66
2022/12/13 04:09:28;;;;;;;26.55;14.10;;;-4.90;99.90;;;;;;5045822;28;20076;-67
2022/12/13 04:14:38;;;;;;;22.67;12.90;;;-4.80;99.90;;;;;;5014409;28;20097;-69
2022/12/13 04:17:03;;;;;;;21.52;12.10;;;-4.80;99.90;;;;;;5009409;28;20115;-69
2022/12/13 04:19:29;;;;;;;19.05;10.35;;;-5.10;99.90;;;;;;5014487;28;20054;-69
2022/12/13 04:21:55;;;;;;;18.55;10.35;;;-4.90;99.90;;;;;;5108379;28;20051;-69
2022/12/13 04:24:22;;;;;;;20.30;11.30;;;-4.90;99.90;;;;;;5033762;28;20597;-69
2022/12/13 04:26:47;;;;;;;19.83;10.88;;;-4.90;99.90;;;;;;5000424;28;20050;-69
2022/12/13 04:29:13;;;;;;;22.85;12.43;;;-4.90;99.90;;;;;;5000947;28;20042;-70
2022/12/13 04:31:39;;;;;;;22.90;12.20;;;-4.90;99.90;;;;;;5000981;28;20064;-69
2022/12/13 04:34:05;;;;;;;21.58;10.98;;;-4.80;99.90;;;;;;5008444;28;20054;-69
2022/12/13 04:36:30;;;;;;;23.85;13.10;;;-5.00;99.90;;;;;;5022192;28;20046;-69
2022/12/13 04:38:56;;;;;;;21.85;12.35;;;-4.90;99.90;;;;;;4997214;28;20050;-70
2022/12/13 04:41:22;;;;;;;21.20;13.10;;;-4.90;99.90;;;;;;5002448;28;20042;-68
2022/12/13 04:43:52;;;;;;;26.25;13.75;;;-5.00;99.90;;;;;;5000769;28;20447;-69
2022/12/13 04:46:21;;;;;;;28.27;13.90;;;-5.00;99.90;;;;;;4996939;28;20050;-69
2022/12/13 04:48:47;;;;;;;25.90;14.65;;;-5.00;99.90;;;;;;4994435;28;20059;-70
2022/12/13 04:51:13;;;;;;;25.05;15.00;;;-5.00;99.90;;;;;;4997771;28;20057;-69
2022/12/13 04:53:39;;;;;;;31.33;15.35;;;-5.00;99.90;;;;;;5004711;28;20054;-69
2022/12/13 04:56:05;;;;;;;23.63;13.73;;;-4.90;99.90;;;;;;5000168;28;20034;-69
2022/12/13 04:58:31;;;;;;;29.75;15.63;;;-5.00;99.90;;;;;;4995764;28;20050;-69
2022/12/13 05:00:57;;;;;;;33.85;16.33;;;-5.00;99.90;;;;;;4998901;28;20336;-69
2022/12/13 05:03:23;;;;;;;31.98;16.35;;;-5.00;99.90;;;;;;5015193;28;20584;-69
2022/12/13 05:05:48;;;;;;;36.20;17.45;;;-5.00;99.90;;;;;;5015028;28;20074;-69
2022/12/13 05:08:14;;;;;;;37.63;17.92;;;-5.40;99.90;;;;;;5007153;28;20052;-69
2022/12/13 05:10:40;;;;;;;29.45;16.08;;;-4.90;99.90;;;;;;5003049;28;20046;-69
2022/12/13 05:13:06;;;;;;;33.53;16.58;;;-4.90;99.90;;;;;;5018453;28;20035;-69
2022/12/13 05:15:32;;;;;;;33.22;17.77;;;-4.90;99.90;;;;;;5009624;28;20053;-69
2022/12/13 05:18:03;;;;;;;37.33;17.77;;;-4.80;99.90;;;;;;5019295;28;20088;-69
2022/12/13 05:20:29;;;;;;;36.35;17.70;;;-4.80;99.90;;;;;;5017254;28;20056;-69
2022/12/13 05:22:56;;;;;;;33.78;16.63;;;-4.80;99.90;;;;;;4998207;28;20043;-69
2022/12/13 05:25:23;;;;;;;34.92;17.27;;;-4.80;99.90;;;;;;4997633;28;20065;-69
2022/12/13 05:27:49;;;;;;;30.00;16.15;;;-4.80;99.90;;;;;;5009080;28;20054;-69
2022/12/13 05:30:14;;;;;;;29.20;16.30;;;-4.30;99.90;;;;;;4995053;28;20077;-69
2022/12/13 05:32:40;;;;;;;32.28;16.60;;;-4.80;99.90;;;;;;4978003;28;20089;-69
2022/12/13 05:35:07;;;;;;;33.28;16.67;;;-4.80;99.90;;;;;;5079835;28;20054;-69
2022/12/13 05:37:33;;;;;;;31.00;15.10;;;-4.90;99.90;;;;;;4998713;28;20066;-69
2022/12/13 05:39:58;;;;;;;35.42;17.75;;;-5.00;99.90;;;;;;4976820;28;20054;-69
2022/12/13 05:42:24;;;;;;;30.92;15.02;;;-5.10;99.90;;;;;;5005452;28;20034;-69
2022/12/13 05:44:53;;;;;;;31.40;16.40;;;-5.20;99.90;;;;;;5008760;28;20116;-69
2022/12/13 05:47:19;;;;;;;34.13;15.95;;;-5.20;99.90;;;;;;5020490;28;20076;-69
2022/12/13 05:49:44;;;;;;;27.00;14.57;;;-5.20;99.90;;;;;;5017280;28;20422;-69
2022/12/13 05:52:21;;;;;;;31.20;16.35;;;-5.20;99.90;;;;;;5096283;28;20055;-69
2022/12/13 05:54:47;;;;;;;30.23;15.63;;;-5.30;99.90;;;;;;5026648;28;20049;-69
2022/12/13 05:57:13;;;;;;;30.77;17.20;;;-5.30;99.90;;;;;;4994354;28;20039;-69
2022/12/13 05:59:39;;;;;;;30.35;15.52;;;-5.70;99.90;;;;;;5062785;28;20055;-69
2022/12/13 06:02:04;;;;;;;29.17;15.35;;;-5.40;99.90;;;;;;4995009;28;20056;-69
2022/12/13 06:04:30;;;;;;;37.03;16.98;;;-5.50;99.90;;;;;;5010848;28;20093;-69
2022/12/13 06:06:56;;;;;;;32.45;16.08;;;-5.40;99.90;;;;;;4982110;28;20038;-69
2022/12/13 06:09:22;;;;;;;30.65;16.45;;;-5.20;99.90;;;;;;5000050;28;20590;-69
2022/12/13 06:11:48;;;;;;;31.33;16.08;;;-5.40;99.90;;;;;;5005490;28;20080;-69
2022/12/13 06:14:14;;;;;;;31.10;16.13;;;-5.40;99.90;;;;;;5001481;28;20057;-69
2022/12/13 06:16:40;;;;;;;31.70;16.23;;;-5.40;99.90;;;;;;5004176;28;20053;-69
2022/12/13 06:19:06;;;;;;;30.25;15.02;;;-5.40;99.90;;;;;;4994775;28;20042;-69
2022/12/13 06:21:32;;;;;;;29.08;16.38;;;-5.30;99.90;;;;;;5000202;28;20057;-69
2022/12/13 06:23:58;;;;;;;30.85;15.63;;;-5.30;99.90;;;;;;5007475;28;20042;-69
2022/12/13 06:26:24;;;;;;;33.20;16.02;;;-5.30;99.90;;;;;;5006651;28;20114;-68
2022/12/13 06:28:49;;;;;;;34.03;15.35;;;-5.30;99.90;;;;;;4994794;28;20034;-68
2022/12/13 06:31:16;;;;;;;29.73;16.50;;;-5.30;99.90;;;;;;4994118;28;20046;-68
2022/12/13 06:33:42;;;;;;;29.73;14.43;;;-5.30;99.90;;;;;;4996203;28;20066;-69
2022/12/13 06:36:08;;;;;;;27.33;15.15;;;-5.20;99.90;;;;;;4997059;28;20493;-69
2022/12/13 06:38:34;;;;;;;30.77;15.77;;;-5.30;99.90;;;;;;5008350;28;20098;-69
2022/12/13 06:41:12;;;;;;;28.83;15.80;;;-5.30;99.90;;;;;;5000632;28;20100;-68
2022/12/13 06:43:41;;;;;;;26.85;14.60;;;-5.30;99.90;;;;;;4993194;28;20099;-68
2022/12/13 06:46:07;;;;;;;32.38;15.77;;;-5.30;99.90;;;;;;4996300;28;20115;-68
2022/12/13 06:48:33;;;;;;;29.58;14.98;;;-5.40;99.90;;;;;;5002375;28;20487;-68
2022/12/13 06:51:00;;;;;;;28.98;15.35;;;-5.30;99.90;;;;;;5007180;28;20102;-68
2022/12/13 06:53:26;;;;;;;30.38;14.48;;;-5.30;99.90;;;;;;4988337;28;20050;-68
2022/12/13 06:55:52;;;;;;;28.70;15.38;;;-5.30;99.90;;;;;;4995293;28;20041;-68
2022/12/13 06:58:17;;;;;;;29.73;15.27;;;-5.30;99.90;;;;;;5012478;28;20084;-68
2022/12/13 07:00:43;;;;;;;29.58;15.20;;;-5.30;99.90;;;;;;5000581;28;20057;-69
2022/12/13 07:03:11;;;;;;;32.22;15.50;;;-5.30;99.90;;;;;;4994486;28;20162;-68
2022/12/13 07:05:37;;;;;;;25.73;15.30;;;-5.40;99.90;;;;;;4992216;28;20070;-68
2022/12/13 07:08:03;;;;;;;29.65;15.05;;;-5.40;99.90;;;;;;4995778;28;20046;-69
2022/12/13 07:10:29;;;;;;;28.08;15.05;;;-5.30;99.90;;;;;;5058679;28;20048;-69
2022/12/13 07:12:55;;;;;;;26.95;13.73;;;-5.10;99.90;;;;;;4994325;28;20046;-68
2022/12/13 07:15:20;;;;;;;26.92;15.65;;;-5.30;99.90;;;;;;5091326;28;20070;-68
2022/12/13 07:17:50;;;;;;;27.40;14.75;;;-5.30;99.90;;;;;;5040126;28;20585;-68
2022/12/13 07:20:17;;;;;;;26.33;13.95;;;-5.30;99.90;;;;;;4995447;28;20382;-67
2022/12/13 07:22:45;;;;;;;23.42;13.15;;;-5.30;99.90;;;;;;4991969;28;20070;-68
2022/12/13 07:25:11;;;;;;;24.83;13.55;;;-5.90;99.90;;;;;;4997463;28;20070;-68
2022/12/13 07:27:37;;;;;;;27.92;13.95;;;-5.20;99.90;;;;;;4991671;28;20059;-68
2022/12/13 07:30:03;;;;;;;21.83;14.38;;;-5.20;99.90;;;;;;5003261;28;20052;-68
2022/12/13 07:32:29;;;;;;;23.92;13.77;;;-5.20;99.90;;;;;;5014029;28;20087;-68
2022/12/13 07:34:54;;;;;;;26.58;14.55;;;-5.20;99.90;;;;;;4997781;28;20062;-68
2022/12/13 07:37:20;;;;;;;26.92;13.93;;;-5.30;99.90;;;;;;5012673;28;20042;-68
2022/12/13 07:39:46;;;;;;;26.00;13.88;;;-5.30;99.90;;;;;;5000718;28;20508;-68
2022/12/13 07:42:11;;;;;;;22.27;13.43;;;-5.30;99.90;;;;;;5004739;28;20072;-68
2022/12/13 07:44:37;;;;;;;26.85;13.73;;;-5.30;99.90;;;;;;5054576;28;20111;-68
2022/12/13 07:47:03;;;;;;;25.90;13.57;;;-5.20;99.90;;;;;;5030241;28;20046;-68
2022/12/13 07:49:28;;;;;;;29.60;14.32;;;-5.20;99.90;;;;;;4993780;28;20050;-68
2022/12/13 07:51:54;;;;;;;28.58;14.43;;;-5.10;99.90;;;;;;4992691;28;20042;-68
2022/12/13 07:54:20;;;;;;;25.13;14.32;;;-5.10;99.90;;;;;;4993529;28;20118;-68
2022/12/13 07:56:45;;;;;;;25.55;14.50;;;-5.10;99.90;;;;;;4991759;28;20043;-68
2022/12/13 07:59:11;;;;;;;25.70;13.30;;;-5.10;99.90;;;;;;4996439;28;20045;-68
2022/12/13 08:01:37;;;;;;;26.20;14.05;;;-4.90;99.90;;;;;;5008833;28;20076;-68
2022/12/13 08:04:03;;;;;;;29.40;15.00;;;-5.00;99.90;;;;;;5013784;28;20050;-68
2022/12/13 08:06:33;;;;;;;25.33;14.02;;;-4.90;99.90;;;;;;4998037;28;20053;-68
2022/12/13 08:08:58;;;;;;;28.40;14.45;;;-4.80;99.90;;;;;;5010009;28;20046;-68
2022/12/13 08:11:24;;;;;;;28.13;15.20;;;-4.80;99.90;;;;;;5043104;28;20049;-68
2022/12/13 08:13:52;;;;;;;29.92;15.95;;;-4.70;99.90;;;;;;4994853;28;20037;-68
2022/12/13 08:16:18;;;;;;;26.20;14.85;;;-4.70;99.90;;;;;;5009436;28;20057;-68
2022/12/13 08:18:46;;;;;;;28.45;14.65;;;-4.70;99.90;;;;;;5013173;28;20083;-68
2022/12/13 08:21:12;;;;;;;27.35;14.02;;;-4.70;99.90;;;;;;5009992;28;20073;-68
2022/12/13 08:23:38;;;;;;;29.20;14.55;;;-4.60;99.90;;;;;;5055300;28;20049;-68
2022/12/13 08:26:04;;;;;;;27.88;13.93;;;-4.50;99.90;;;;;;5003566;28;20034;-68
2022/12/13 08:28:31;;;;;;;26.70;14.15;;;-4.50;99.90;;;;;;5001607;28;20103;-68
2022/12/13 08:31:10;;;;;;;29.85;14.55;;;-4.50;99.90;;;;;;5000069;28;20050;-68
2022/12/13 08:33:36;;;;;;;30.25;15.63;;;-4.40;99.90;;;;;;5005044;28;20050;-68
2022/12/13 08:36:29;;;;;;;32.15;17.02;;;-4.40;99.90;;;;;;5066136;28;20466;-68
2022/12/13 08:38:55;;;;;;;30.92;14.63;;;-4.40;99.90;;;;;;4996502;28;20062;-68
2022/12/13 08:41:22;;;;;;;28.52;15.73;;;-4.30;99.90;;;;;;5003684;28;20046;-68
2022/12/13 08:43:48;;;;;;;33.53;15.75;;;-4.30;99.90;;;;;;5000188;28;20094;-68
2022/12/13 08:46:14;;;;;;;33.00;15.63;;;-4.40;99.90;;;;;;5016369;28;20089;-68
2022/12/13 08:48:40;;;;;;;28.50;16.48;;;-4.50;99.90;;;;;;5008989;28;20054;-67
2022/12/13 08:51:08;;;;;;;32.75;16.27;;;-4.50;99.90;;;;;;4997170;28;20068;-67
2022/12/13 08:53:34;;;;;;;31.08;15.60;;;-4.40;99.90;;;;;;4994703;28;20126;-67
2022/12/13 08:56:06;;;;;;;34.65;16.42;;;-4.40;99.90;;;;;;4996414;28;20061;-66
2022/12/13 08:58:32;;;;;;;29.58;15.23;;;-4.40;99.90;;;;;;4997177;28;20080;-67
2022/12/13 09:00:58;;;;;;;30.38;17.08;;;-4.30;99.90;;;;;;4978205;28;20057;-67
2022/12/13 09:03:23;;;;;;;30.83;15.98;;;-4.20;99.90;;;;;;4997344;28;20050;-67
2022/12/13 09:05:49;;;;;;;27.60;15.43;;;-4.10;99.90;;;;;;5024505;28;20050;-67
2022/12/13 09:08:15;;;;;;;28.13;15.30;;;-4.00;99.90;;;;;;4996201;28;20050;-67
2022/12/13 09:10:41;;;;;;;28.42;16.05;;;-3.90;99.90;;;;;;5004226;28;20498;-67
2022/12/13 09:13:07;;;;;;;29.70;15.05;;;-3.90;99.90;;;;;;4996951;28;20072;-67
2022/12/13 09:15:32;;;;;;;29.00;15.25;;;-3.80;99.90;;;;;;5030395;28;20045;-67
2022/12/13 09:17:58;;;;;;;25.58;14.73;;;-3.60;99.90;;;;;;5010219;28;20046;-67
2022/12/13 09:20:24;;;;;;;26.90;13.38;;;-3.60;99.90;;;;;;5044352;28;20040;-66
2022/12/13 09:22:50;;;;;;;25.08;14.52;;;-3.40;99.90;;;;;;5087389;28;20118;-67
2022/12/13 09:25:16;;;;;;;25.10;14.15;;;-3.30;99.90;;;;;;5000190;28;20047;-67
2022/12/13 09:27:42;;;;;;;27.50;14.45;;;-3.20;99.90;;;;;;5007046;28;20038;-67
2022/12/13 09:30:11;;;;;;;25.52;14.18;;;-3.10;99.90;;;;;;4996552;28;20129;-67
2022/12/13 09:32:39;;;;;;;25.60;13.90;;;-3.00;99.90;;;;;;5009137;28;20109;-66
2022/12/13 09:35:05;;;;;;;20.98;12.98;;;-2.80;99.90;;;;;;5009526;28;20042;-67
2022/12/13 09:37:31;;;;;;;24.80;13.07;;;-2.90;99.90;;;;;;5036596;27;20042;-67
2022/12/13 09:39:57;;;;;;;25.80;14.00;;;-2.80;99.90;;;;;;4996175;28;20042;-67
2022/12/13 09:42:26;;;;;;;25.90;13.55;;;-2.80;99.90;;;;;;5001498;28;20038;-67
2022/12/13 09:44:55;;;;;;;25.67;14.10;;;-2.80;99.90;;;;;;5010402;28;20042;-67
2022/12/13 09:47:34;;;;;;;24.80;14.75;;;-2.70;99.90;;;;;;5003181;28;20076;-67
2022/12/13 09:50:03;;;;;;;26.00;14.13;;;-2.60;99.90;;;;;;5005229;28;20087;-66
2022/12/13 09:52:37;;;;;;;25.00;14.43;;;-2.80;99.90;;;;;;4994933;28;20076;-67
2022/12/13 09:55:17;;;;;;;25.13;13.57;;;-2.40;99.90;;;;;;5012611;28;20088;-67
2022/12/13 09:57:43;;;;;;;27.17;13.73;;;-2.30;99.90;;;;;;5009210;28;20050;-66
2022/12/13 10:00:15;;;;;;;24.30;13.63;;;-2.20;99.90;;;;;;4995757;28;20055;-67
2022/12/13 10:02:52;;;;;;;24.17;13.63;;;-2.00;99.90;;;;;;4995961;28;20053;-66
2022/12/13 10:05:34;;;;;;;24.90;14.27;;;-1.70;99.90;;;;;;4994435;28;20050;-67
2022/12/13 10:08:05;;;;;;;24.83;14.25;;;-1.40;99.90;;;;;;4999829;28;20386;-66
2022/12/13 10:10:31;;;;;;;24.95;14.10;;;-1.00;99.90;;;;;;5009176;28;20053;-66
2022/12/13 10:13:27;;;;;;;22.08;12.85;;;-0.60;99.90;;;;;;5004504;28;20038;-67
2022/12/13 10:16:19;;;;;;;22.17;13.57;;;-0.20;99.90;;;;;;5008316;28;20066;-66
2022/12/13 10:18:44;;;;;;;21.67;12.70;;;0.30;99.90;;;;;;5009095;28;20121;-66
2022/12/13 10:21:19;;;;;;;23.13;13.95;;;0.60;99.90;;;;;;5008011;28;20069;-66
2022/12/13 10:23:45;;;;;;;21.88;12.73;;;0.90;99.90;;;;;;5084939;28;20049;-66
2022/12/13 10:26:12;;;;;;;24.98;14.40;;;1.00;99.90;;;;;;4992762;28;20057;-66
2022/12/13 10:28:39;;;;;;;24.55;13.98;;;1.10;99.90;;;;;;5029170;28;20050;-65
2022/12/13 10:31:05;;;;;;;21.30;13.68;;;1.20;99.90;;;;;;4997914;28;20049;-66
2022/12/13 10:33:43;;;;;;;19.80;12.50;;;1.60;99.90;;;;;;4995008;28;20088;-66
2022/12/13 10:36:28;;;;;;;22.50;13.55;;;2.00;99.90;;;;;;5003466;28;20045;-66
2022/12/13 10:38:56;;;;;;;21.63;12.20;;;2.20;99.90;;;;;;5006387;28;20391;-66
2022/12/13 10:41:32;;;;;;;19.58;12.43;;;2.40;99.90;;;;;;5002720;28;20046;-66
2022/12/13 10:44:15;;;;;;;20.02;12.68;;;2.60;99.90;;;;;;4997162;28;20079;-66
2022/12/13 10:46:50;;;;;;;19.48;12.20;;;2.90;99.90;;;;;;5000889;28;20184;-66
2022/12/13 10:49:25;;;;;;;21.60;12.60;;;2.90;99.90;;;;;;4999835;28;20462;-65
2022/12/13 10:51:53;;;;;;;19.83;12.77;;;2.40;99.90;;;;;;5000728;28;20054;-69
2022/12/13 10:54:24;;;;;;;22.95;13.55;;;1.70;99.90;;;;;;4988760;28;20054;-71
2022/12/13 10:56:54;;;;;;;19.52;12.52;;;1.10;99.90;;;;;;5001417;28;20054;-69
2022/12/13 10:59:29;;;;;;;21.30;12.50;;;0.70;99.90;;;;;;5001061;28;20043;-69
2022/12/13 11:01:55;;;;;;;20.95;13.05;;;0.40;99.90;;;;;;4990849;28;20414;-69
2022/12/13 11:04:31;;;;;;;22.60;14.20;;;0.10;99.90;;;;;;4993883;28;20557;-71
2022/12/13 11:07:00;;;;;;;20.20;13.15;;;-0.10;99.90;;;;;;4992579;28;20038;-69
2022/12/13 11:09:31;;;;;;;22.23;14.18;;;-0.30;99.90;;;;;;4984465;28;20046;-69
2022/12/13 11:12:03;;;;;;;21.95;13.85;;;-0.40;99.90;;;;;;4980775;28;20050;-70
2022/12/13 11:14:34;;;;;;;25.42;14.20;;;-0.50;99.90;;;;;;5005888;28;20112;-71
2022/12/13 11:17:07;;;;;;;21.60;13.82;;;-0.40;99.90;;;;;;5013093;28;20058;-70
2022/12/13 11:19:50;;;;;;;25.67;14.75;;;-0.60;99.90;;;;;;5012616;28;20045;-70
2022/12/13 11:22:26;;;;;;;22.70;13.60;;;-0.70;99.90;;;;;;5012156;28;20050;-70
2022/12/13 11:25:07;;;;;;;23.98;15.38;;;-0.80;99.90;;;;;;5074373;28;20395;-70
2022/12/13 11:27:56;;;;;;;26.80;15.68;;;-0.80;99.90;;;;;;5057704;28;20074;-69
2022/12/13 11:30:51;;;;;;;24.35;14.32;;;-0.80;99.90;;;;;;5116090;28;20048;-70
2022/12/13 11:33:26;;;;;;;26.60;14.77;;;-0.80;99.90;;;;;;5039811;28;20499;-70
2022/12/13 11:36:01;;;;;;;27.25;14.93;;;-0.90;99.90;;;;;;5017315;28;20108;-70
2022/12/13 11:39:13;;;;;;;24.48;14.43;;;-0.90;99.90;;;;;;5012875;28;20045;-70
2022/12/13 11:42:11;;;;;;;23.63;14.77;;;-0.90;99.90;;;;;;5025687;28;20054;-69
2022/12/13 11:45:00;;;;;;;25.17;14.43;;;-0.90;99.90;;;;;;5013554;28;20057;-69
2022/12/13 11:47:44;;;;;;;25.27;14.02;;;-0.80;99.90;;;;;;5009767;28;20133;-70
2022/12/13 11:50:22;;;;;;;25.75;13.73;;;-0.80;99.90;;;;;;5054891;28;20109;-69
2022/12/13 11:53:09;;;;;;;24.83;14.88;;;-0.80;99.90;;;;;;5114214;28;20056;-70
2022/12/13 11:55:41;;;;;;;25.10;14.73;;;-0.80;99.90;;;;;;5117532;28;20063;-70
2022/12/13 11:58:28;;;;;;;23.95;13.93;;;-0.80;99.90;;;;;;5114966;28;20099;-70
2022/12/13 12:01:06;;;;;;;23.65;13.27;;;-0.80;99.90;;;;;;5116092;28;20075;-70
2022/12/13 12:03:34;;;;;;;23.95;13.07;;;-0.80;99.90;;;;;;5116322;28;20102;-70
2022/12/13 12:06:22;;;;;;;22.48;14.45;;;-0.80;99.90;;;;;;5117220;28;20090;-70
2022/12/13 12:08:58;;;;;;;23.50;14.98;;;-0.70;99.90;;;;;;5005563;28;20101;-70
2022/12/13 12:11:41;;;;;;;23.60;13.90;;;-0.70;99.90;;;;;;5000582;28;20132;-69
2022/12/13 12:14:36;;;;;;;21.55;13.98;;;-0.70;99.90;;;;;;5009213;28;20515;-69
2022/12/13 12:17:05;;;;;;;21.83;13.52;;;-0.60;99.90;;;;;;5035706;28;20081;-69
2022/12/13 12:19:37;;;;;;;24.20;13.55;;;-0.60;99.90;;;;;;5034865;28;20046;-69
2022/12/13 12:22:36;;;;;;;25.17;13.38;;;-0.60;99.90;;;;;;5034123;28;20096;-70
2022/12/13 12:25:25;;;;;;;21.35;12.98;;;-0.60;99.90;;;;;;5037551;28;20070;-69
2022/12/13 12:28:10;;;;;;;23.33;14.50;;;-0.50;99.90;;;;;;4995514;28;20435;-69
2022/12/13 12:30:52;;;;;;;22.88;12.95;;;-0.50;99.90;;;;;;4994802;28;20054;-70
2022/12/13 12:33:36;;;;;;;22.52;13.23;;;-0.40;99.90;;;;;;4997726;28;20520;-69
2022/12/13 12:36:21;;;;;;;22.20;12.70;;;-0.30;99.90;;;;;;4996054;28;20050;-70
2022/12/13 12:39:18;;;;;;;22.58;13.90;;;-0.20;99.90;;;;;;4996699;28;20046;-70
2022/12/13 12:41:47;;;;;;;;;;;-0.10;99.90;;;;;;5066046;28;20053;-69
2022/12/13 12:44:30;;;;;;;23.30;13.13;;;0.20;99.90;;;;;;5118154;28;19930;-69
2022/12/13 12:47:03;;;;;;;23.40;13.75;;;0.40;99.90;;;;;;5120907;28;20051;-70
2022/12/13 12:50:00;;;;;;;25.45;14.07;;;0.50;99.90;;;;;;5118911;28;20054;-69